Time;durP1;ratioP1;P1;durP2;ratioP2;P2;SDS_P1;SDS_P2;PMS_P1;PMS_P2;Temp;Humidity;BMP_temperature;BMP_pressure;BME280_temperature;BME280_humidity;BME280_pressure;Samples;Min_cycle;Max_cycle;Signal;HPM_P1;HPM_P2
2021/04/29 00:02:07;;;;;;;8.02;4.10;;;;;;;12.33;56.97;98681.72;5057830;28;20049;-74
2021/04/29 00:04:35;;;;;;;5.95;4.65;;;;;;;12.32;57.29;98680.03;5057880;28;20098;-74
2021/04/29 00:07:02;;;;;;;10.00;4.82;;;;;;;12.35;57.34;98677.91;5023055;28;20143;-74
2021/04/29 00:09:35;;;;;;;7.80;5.47;;;;;;;12.25;57.57;98681.56;5057216;28;20053;-74
2021/04/29 00:12:03;;;;;;;7.93;4.57;;;;;;;12.19;57.97;98688.31;5039488;28;20056;-73
2021/04/29 00:14:30;;;;;;;6.45;4.80;;;;;;;12.09;58.28;98674.94;5060322;28;20049;-73
2021/04/29 00:16:56;;;;;;;11.35;5.10;;;;;;;12.00;58.82;98689.97;5076714;28;20051;-73
2021/04/29 00:19:23;;;;;;;8.95;5.13;;;;;;;11.96;58.95;98683.22;5076846;28;20062;-74
2021/04/29 00:21:49;;;;;;;7.00;4.57;;;;;;;11.98;58.79;98680.41;5076922;28;20056;-74
2021/04/29 00:24:15;;;;;;;10.55;4.55;;;;;;;11.95;59.13;98687.69;5076907;28;20055;-73
2021/04/29 00:26:41;;;;;;;10.15;5.15;;;;;;;11.96;59.21;98685.88;5076662;28;20049;-74
2021/04/29 00:29:08;;;;;;;10.30;4.63;;;;;;;11.94;59.24;98680.66;5060173;28;20074;-73
2021/04/29 00:31:34;;;;;;;11.20;5.05;;;;;;;11.89;59.76;98676.72;5059055;28;20056;-73
2021/04/29 00:34:00;;;;;;;10.13;5.70;;;;;;;11.77;59.85;98682.19;5076572;28;20044;-73
2021/04/29 00:36:28;;;;;;;10.52;5.30;;;;;;;11.78;60.09;98683.06;5058662;28;20098;-73
2021/04/29 00:38:55;;;;;;;9.43;5.03;;;;;;;11.80;60.60;98692.63;5076688;28;20059;-72
2021/04/29 00:41:24;;;;;;;7.85;4.78;;;;;;;11.79;60.28;98693.63;5058585;28;20101;-73
2021/04/29 00:43:53;;;;;;;12.65;5.40;;;;;;;11.73;60.28;98670.09;5076052;28;20136;-73
2021/04/29 00:46:21;;;;;;;11.55;4.60;;;;;;;11.76;60.47;98698.41;5058267;28;20529;-73
2021/04/29 00:48:47;;;;;;;6.82;4.47;;;;;;;11.73;60.85;98694.16;5076003;28;20060;-73
2021/04/29 00:51:14;;;;;;;9.10;4.82;;;;;;;11.77;60.87;98692.88;5075660;28;20059;-73
2021/04/29 00:53:43;;;;;;;7.93;5.18;;;;;;;11.70;61.00;98697.09;5076138;28;20067;-73
2021/04/29 00:56:09;;;;;;;10.55;5.40;;;;;;;11.67;61.37;98700.88;5075867;28;20049;-73
2021/04/29 00:58:36;;;;;;;7.60;5.40;;;;;;;11.67;61.49;98694.72;5076358;28;20087;-73
2021/04/29 01:01:04;;;;;;;7.65;5.28;;;;;;;11.63;61.40;98690.59;5075987;28;20131;-73
2021/04/29 01:03:47;;;;;;;10.65;5.22;;;;;;;11.65;61.55;98699.31;5058111;28;20044;-73
2021/04/29 01:06:19;;;;;;;9.85;5.35;;;;;;;11.68;61.57;98712.44;5057837;28;20068;-73
2021/04/29 01:08:58;;;;;;;9.60;5.50;;;;;;;11.70;61.57;98712.31;5075621;28;20071;-73
2021/04/29 01:11:27;;;;;;;7.80;5.38;;;;;;;11.70;61.67;98710.47;5075618;28;20055;-73
2021/04/29 01:13:56;;;;;;;11.43;5.43;;;;;;;11.66;61.58;98706.38;5046050;28;20049;-73
2021/04/29 01:16:24;;;;;;;9.77;5.18;;;;;;;11.67;61.84;98711.56;5051426;28;20154;-74
2021/04/29 01:18:56;;;;;;;12.93;5.25;;;;;;;11.61;62.20;98711.28;5055386;28;20061;-73
2021/04/29 01:21:25;;;;;;;14.30;5.88;;;;;;;11.57;62.34;98716.06;5055626;28;20106;-73
2021/04/29 01:24:08;;;;;;;9.57;5.05;;;;;;;11.52;62.45;98703.13;5055632;28;20102;-73
2021/04/29 01:26:56;;;;;;;9.18;5.28;;;;;;;11.49;62.89;98710.56;5054787;28;20049;-74
2021/04/29 01:29:26;;;;;;;8.95;5.15;;;;;;;11.45;62.93;98720.66;5055551;28;20053;-73
2021/04/29 01:31:55;;;;;;;9.40;5.63;;;;;;;11.42;63.02;98723.59;5055629;28;20052;-74
2021/04/29 01:34:25;;;;;;;12.13;5.53;;;;;;;11.30;63.13;98713.97;5055322;28;20278;-74
2021/04/29 01:36:53;;;;;;;9.65;5.55;;;;;;;11.36;63.41;98737.47;5055254;28;20056;-74
2021/04/29 01:39:20;;;;;;;11.07;5.90;;;;;;;11.34;63.57;98726.94;5055615;28;20052;-74
2021/04/29 01:41:52;;;;;;;9.75;5.18;;;;;;;11.33;63.84;98737.75;5055376;28;20373;-73
2021/04/29 01:44:23;;;;;;;7.93;4.97;;;;;;;11.33;63.62;98732.44;5055460;28;20095;-74
2021/04/29 01:46:50;;;;;;;8.88;5.50;;;;;;;11.25;64.08;98733.09;5055110;28;20052;-73
2021/04/29 01:49:17;;;;;;;11.25;5.70;;;;;;;11.22;64.01;98730.69;5037554;28;20060;-74
2021/04/29 01:51:44;;;;;;;6.72;5.13;;;;;;;11.24;63.97;98737.56;5054865;28;20057;-74
2021/04/29 01:54:12;;;;;;;11.50;5.45;;;;;;;11.21;64.34;98739.66;5055154;28;20060;-74
2021/04/29 01:56:40;;;;;;;9.65;5.43;;;;;;;11.17;64.42;98740.91;5054932;28;20438;-74
2021/04/29 01:59:08;;;;;;;6.88;4.97;;;;;;;11.07;64.30;98735.53;5054893;28;20052;-74
2021/04/29 02:01:36;;;;;;;10.05;5.28;;;;;;;11.07;64.72;98740.88;5037797;28;20060;-74
2021/04/29 02:04:03;;;;;;;9.02;5.47;;;;;;;11.04;65.07;98738.44;5054806;28;20057;-74
2021/04/29 02:06:30;;;;;;;7.32;5.70;;;;;;;10.89;65.54;98737.97;5055230;28;20380;-74
2021/04/29 02:08:56;;;;;;;10.40;5.55;;;;;;;10.90;65.61;98740.47;5054574;28;20060;-73
2021/04/29 02:11:23;;;;;;;7.75;5.85;;;;;;;10.89;65.67;98738.78;5054917;28;20045;-73
2021/04/29 02:13:53;;;;;;;10.02;6.13;;;;;;;10.87;65.92;98730.06;5057938;28;20053;-73
2021/04/29 02:16:39;;;;;;;10.70;6.43;;;;;;;10.77;66.18;98735.34;5075089;28;20056;-73
2021/04/29 02:19:08;;;;;;;9.18;7.20;;;;;;;10.80;66.26;98734.25;5074981;28;20052;-73
2021/04/29 02:21:36;;;;;;;9.30;6.78;;;;;;;10.62;66.93;98736.66;5075125;28;20044;-73
2021/04/29 02:24:04;;;;;;;10.70;7.30;;;;;;;10.61;67.00;98741.13;5074488;28;20079;-74
2021/04/29 02:26:32;;;;;;;11.95;7.78;;;;;;;10.54;67.26;98735.47;5057214;28;20048;-74
2021/04/29 02:28:59;;;;;;;8.85;6.95;;;;;;;10.44;67.52;98718.53;5074667;28;20061;-73
2021/04/29 02:31:26;;;;;;;10.02;7.13;;;;;;;10.44;67.66;98730.06;5074652;28;20711;-74
2021/04/29 02:33:52;;;;;;;11.02;7.35;;;;;;;10.35;68.18;98736.13;5057060;28;20174;-74
2021/04/29 02:36:20;;;;;;;12.65;8.07;;;;;;;10.35;67.95;98733.44;5074551;28;20057;-74
2021/04/29 02:38:46;;;;;;;12.48;7.93;;;;;;;10.37;68.43;98738.66;5078449;28;20048;-73
2021/04/29 02:41:12;;;;;;;11.30;8.20;;;;;;;10.27;68.74;98739.44;5061039;28;20102;-73
2021/04/29 02:43:39;;;;;;;16.98;8.98;;;;;;;10.25;69.03;98741.38;5078415;28;20052;-74
2021/04/29 02:46:05;;;;;;;17.25;8.60;;;;;;;10.25;68.88;98740.53;5060771;28;20102;-74
2021/04/29 02:48:32;;;;;;;12.20;8.55;;;;;;;10.18;69.18;98738.38;5078243;28;20049;-74
2021/04/29 02:51:03;;;;;;;14.75;8.88;;;;;;;10.20;69.29;98743.59;5078437;28;20051;-74
2021/04/29 02:53:33;;;;;;;17.60;9.57;;;;;;;10.24;69.16;98749.50;5077993;28;20045;-74
2021/04/29 02:56:00;;;;;;;18.42;9.70;;;;;;;10.30;69.05;98749.00;5078127;28;20052;-74
2021/04/29 02:58:26;;;;;;;13.70;9.70;;;;;;;10.36;68.88;98747.63;5078011;28;20056;-74
2021/04/29 03:00:54;;;;;;;12.55;9.73;;;;;;;10.34;69.05;98755.75;5076851;28;20072;-74
2021/04/29 03:03:21;;;;;;;15.32;10.15;;;;;;;10.17;69.15;98734.00;5077878;28;20088;-74
2021/04/29 03:05:48;;;;;;;14.38;10.02;;;;;;;10.37;68.96;98760.84;5077959;28;20057;-73
2021/04/29 03:08:14;;;;;;;15.57;11.05;;;;;;;10.30;69.13;98762.34;5077826;28;20071;-73
2021/04/29 03:10:41;;;;;;;14.63;10.15;;;;;;;10.30;69.33;98765.00;5077694;28;20427;-73
2021/04/29 03:13:07;;;;;;;15.68;11.15;;;;;;;10.13;69.57;98743.22;5075692;28;20102;-73
2021/04/29 03:15:33;;;;;;;18.30;11.52;;;;;;;10.19;69.53;98772.06;5058035;28;20057;-73
2021/04/29 03:17:59;;;;;;;16.52;12.23;;;;;;;10.13;69.64;98759.22;5040379;28;20063;-74
2021/04/29 03:20:41;;;;;;;19.65;13.00;;;;;;;10.08;70.09;98776.56;5042480;28;20102;-74
2021/04/29 03:23:08;;;;;;;18.75;12.77;;;;;;;10.05;70.15;98773.19;5057580;28;20059;-74
2021/04/29 03:25:34;;;;;;;19.33;13.77;;;;;;;10.01;70.19;98773.53;5057875;28;20057;-74
2021/04/29 03:28:00;;;;;;;22.67;13.63;;;;;;;9.96;70.62;98762.44;5057585;28;20056;-74
2021/04/29 03:30:26;;;;;;;18.33;13.70;;;;;;;9.92;70.71;98773.31;5023417;28;20048;-74
2021/04/29 03:32:52;;;;;;;24.45;14.55;;;;;;;9.98;70.39;98779.13;5057597;28;20060;-74
2021/04/29 03:35:19;;;;;;;26.52;14.52;;;;;;;9.88;70.67;98777.22;5057451;28;20057;-74
2021/04/29 03:37:45;;;;;;;21.55;15.25;;;;;;;9.74;70.78;98764.13;5040125;28;20053;-73
2021/04/29 03:40:12;;;;;;;20.33;15.32;;;;;;;9.77;71.13;98779.91;5057523;28;20056;-73
2021/04/29 03:42:38;;;;;;;22.90;15.45;;;;;;;9.73;71.15;98778.44;5057614;28;20053;-73
2021/04/29 03:45:05;;;;;;;22.48;14.73;;;;;;;9.73;71.04;98771.31;5057437;28;20057;-73
2021/04/29 03:47:32;;;;;;;21.70;15.20;;;;;;;9.72;71.35;98782.94;5057139;28;20052;-73
2021/04/29 03:49:59;;;;;;;20.60;14.70;;;;;;;9.67;71.59;98785.13;5056244;28;20449;-74
2021/04/29 03:52:25;;;;;;;24.15;16.42;;;;;;;9.58;71.85;98786.69;5057230;28;20167;-74
2021/04/29 03:54:51;;;;;;;24.75;15.30;;;;;;;9.44;71.80;98757.63;5056905;28;20045;-74
2021/04/29 03:57:18;;;;;;;22.40;16.08;;;;;;;9.58;71.94;98784.03;5057359;28;20049;-73
2021/04/29 03:59:44;;;;;;;23.80;15.18;;;;;;;9.57;71.93;98800.97;5056893;28;20057;-73
2021/04/29 04:02:11;;;;;;;22.50;15.68;;;;;;;9.42;72.51;98786.22;5056892;28;20053;-73
2021/04/29 04:04:38;;;;;;;20.75;15.13;;;;;;;9.52;72.50;98803.16;5039559;28;20339;-73
2021/04/29 04:07:05;;;;;;;20.92;15.95;;;;;;;9.41;72.92;98805.81;5056791;28;20053;-73
2021/04/29 04:09:31;;;;;;;23.65;16.65;;;;;;;9.40;73.02;98809.44;5056774;28;20052;-75
2021/04/29 04:11:57;;;;;;;24.45;16.63;;;;;;;9.43;72.76;98814.53;5039292;28;20045;-74
2021/04/29 04:14:23;;;;;;;27.65;17.90;;;;;;;9.39;72.98;98813.94;5059604;28;20132;-74
2021/04/29 04:16:49;;;;;;;26.42;18.50;;;;;;;9.37;73.27;98813.16;5076690;28;20056;-74
2021/04/29 04:19:16;;;;;;;25.00;17.67;;;;;;;9.36;73.35;98809.69;5058831;28;20052;-74
2021/04/29 04:21:42;;;;;;;30.33;18.75;;;;;;;9.30;73.50;98815.47;5063487;28;20461;-75
2021/04/29 04:24:08;;;;;;;26.42;19.27;;;;;;;9.28;73.68;98822.75;5071530;28;20057;-73
2021/04/29 04:26:35;;;;;;;34.70;23.17;;;;;;;9.20;74.10;98825.13;5053158;28;20100;-74
2021/04/29 04:29:01;;;;;;;31.35;21.52;;;;;;;9.23;74.25;98830.22;5060216;28;20078;-72
2021/04/29 04:31:27;;;;;;;35.53;23.73;;;;;;;9.21;74.09;98842.81;5056282;28;20075;-73
2021/04/29 04:33:54;;;;;;;32.85;23.35;;;;;;;9.15;74.33;98840.63;5056281;28;20076;-73
2021/04/29 04:36:20;;;;;;;37.40;24.35;;;;;;;9.02;74.76;98840.69;5038805;28;20052;-73
2021/04/29 04:38:46;;;;;;;36.33;26.60;;;;;;;9.07;74.78;98846.53;5056102;28;20476;-73
2021/04/29 04:41:16;;;;;;;37.33;26.98;;;;;;;9.01;75.13;98847.84;5039100;28;20045;-73
2021/04/29 04:43:42;;;;;;;38.67;26.95;;;;;;;8.96;75.48;98850.00;5056407;28;20052;-73
2021/04/29 04:46:09;;;;;;;39.03;27.33;;;;;;;8.94;75.30;98857.25;5056116;28;20055;-73
2021/04/29 04:48:35;;;;;;;45.40;28.52;;;;;;;8.91;75.65;98853.03;5056203;28;20057;-73
2021/04/29 04:51:01;;;;;;;45.55;28.75;;;;;;;8.81;75.95;98852.00;5039408;28;20049;-73
2021/04/29 04:53:28;;;;;;;49.15;31.38;;;;;;;8.87;75.94;98856.03;5029959;28;20370;-72
2021/04/29 04:55:54;;;;;;;49.70;30.88;;;;;;;8.87;76.15;98867.50;5039609;28;20061;-73
2021/04/29 04:58:20;;;;;;;44.33;30.27;;;;;;;8.88;76.17;98865.72;5026645;28;20054;-75
2021/04/29 05:00:49;;;;;;;46.05;31.05;;;;;;;8.83;76.50;98872.22;5023627;28;20045;-74
2021/04/29 05:03:16;;;;;;;45.67;31.52;;;;;;;8.82;76.48;98873.19;5026383;28;20054;-75
2021/04/29 05:05:44;;;;;;;54.63;32.30;;;;;;;8.78;77.08;98873.53;5027691;28;20124;-73
2021/04/29 05:08:12;;;;;;;49.28;33.53;;;;;;;8.80;76.96;98880.44;5040856;28;20351;-75
2021/04/29 05:10:38;;;;;;;53.80;33.97;;;;;;;8.81;76.66;98874.16;5025168;28;20046;-75
2021/04/29 05:13:05;;;;;;;48.08;33.08;;;;;;;8.83;77.15;98871.38;5024501;28;20050;-75
2021/04/29 05:15:34;;;;;;;45.08;33.10;;;;;;;8.81;77.26;98894.56;5025951;28;20474;-73
2021/04/29 05:18:00;;;;;;;52.05;34.63;;;;;;;8.79;77.63;98897.38;5015718;28;20058;-73
2021/04/29 05:20:27;;;;;;;52.60;35.35;;;;;;;8.84;77.73;98891.69;5015670;28;20045;-73
2021/04/29 05:22:54;;;;;;;64.43;36.08;;;;;;;8.76;78.39;98896.75;5015085;28;20108;-73
2021/04/29 05:25:22;;;;;;;54.72;35.45;;;;;;;8.81;78.32;98899.88;5014429;28;20061;-73
2021/04/29 05:27:52;;;;;;;48.97;34.45;;;;;;;8.78;78.69;98900.13;5015878;28;20050;-72
2021/04/29 05:30:20;;;;;;;60.22;35.88;;;;;;;8.80;78.75;98899.06;5018271;28;20080;-73
2021/04/29 05:32:47;;;;;;;60.45;36.70;;;;;;;8.82;78.87;98899.78;4998208;28;20054;-73
2021/04/29 05:35:15;;;;;;;59.60;37.42;;;;;;;8.93;78.61;98903.47;5015405;28;20060;-76
2021/04/29 05:37:41;;;;;;;52.80;36.33;;;;;;;9.00;78.50;98909.16;4998489;28;20050;-74
2021/04/29 05:40:08;;;;;;;51.20;36.17;;;;;;;8.99;79.02;98904.81;5022167;28;20042;-75
2021/04/29 05:42:35;;;;;;;57.47;36.47;;;;;;;8.91;78.90;98894.72;5035109;28;20049;-75
2021/04/29 05:45:03;;;;;;;56.67;36.88;;;;;;;9.00;78.84;98895.88;5006381;28;20061;-75
2021/04/29 05:47:29;;;;;;;58.90;38.08;;;;;;;9.10;78.60;98899.53;5035147;28;20465;-75
2021/04/29 05:49:56;;;;;;;62.90;39.75;;;;;;;8.98;78.75;98882.66;5034970;28;20072;-74
2021/04/29 05:52:22;;;;;;;60.28;39.05;;;;;;;9.10;78.83;98904.88;5017280;28;20095;-74
2021/04/29 05:54:48;;;;;;;64.85;42.58;;;;;;;9.14;78.56;98908.97;5024677;28;20149;-75
2021/04/29 05:57:14;;;;;;;60.28;41.55;;;;;;;9.12;78.62;98912.72;5024229;28;20367;-75
2021/04/29 05:59:40;;;;;;;62.42;43.42;;;;;;;9.03;78.86;98908.94;5009528;28;20355;-74
2021/04/29 06:02:08;;;;;;;68.25;41.63;;;;;;;9.09;78.63;98906.66;5034209;28;20053;-73
2021/04/29 06:04:40;;;;;;;61.90;41.70;;;;;;;9.18;78.37;98912.25;5021659;28;20093;-74
2021/04/29 06:07:08;;;;;;;60.63;42.28;;;;;;;9.17;78.31;98905.25;5015478;28;20046;-76
2021/04/29 06:09:35;;;;;;;63.20;42.92;;;;;;;9.10;78.55;98904.88;5015614;28;20088;-79
2021/04/29 06:12:02;;;;;;;67.05;41.60;;;;;;;8.98;78.86;98909.28;4999249;28;20046;-74
2021/04/29 06:14:28;;;;;;;60.38;41.70;;;;;;;9.00;78.75;98894.06;5032726;28;20053;-74
2021/04/29 06:16:55;;;;;;;61.78;42.28;;;;;;;8.96;79.20;98913.88;5021673;28;20469;-73
2021/04/29 06:19:21;;;;;;;63.13;44.10;;;;;;;8.98;78.58;98908.44;5039161;28;20050;-73
2021/04/29 06:21:47;;;;;;;64.07;43.95;;;;;;;9.14;78.67;98908.97;5039229;28;20049;-73
2021/04/29 06:24:14;;;;;;;69.13;45.83;;;;;;;9.15;77.94;98912.50;5038714;28;20060;-72
2021/04/29 06:26:41;;;;;;;60.05;43.10;;;;;;;9.20;77.65;98907.66;5021291;28;20472;-72
2021/04/29 06:29:08;;;;;;;62.70;44.45;;;;;;;9.33;76.34;98919.06;5038839;28;20055;-73
2021/04/29 06:31:37;;;;;;;68.10;44.55;;;;;;;9.27;76.45;98910.72;5038561;28;20049;-74
2021/04/29 06:34:04;;;;;;;65.80;43.63;;;;;;;9.28;76.21;98915.06;5031327;28;20479;-71
2021/04/29 06:36:31;;;;;;;64.57;45.53;;;;;;;9.32;75.99;98921.88;5021590;28;20061;-75
2021/04/29 06:38:58;;;;;;;63.28;45.55;;;;;;;9.40;74.84;98929.25;5039268;28;20403;-74
2021/04/29 06:41:24;;;;;;;68.47;45.08;;;;;;;9.40;74.89;98921.28;5040000;28;20073;-71
2021/04/29 06:43:51;;;;;;;73.90;44.33;;;;;;;9.72;74.07;98931.28;5039519;28;20069;-72
2021/04/29 06:46:17;;;;;;;58.78;42.25;;;;;;;9.75;73.60;98936.38;5039179;28;20076;-74
2021/04/29 06:48:43;;;;;;;62.03;46.00;;;;;;;9.67;73.62;98939.63;5021635;28;20057;-71
2021/04/29 06:51:10;;;;;;;66.10;45.40;;;;;;;9.70;73.38;98944.72;5038235;28;20144;-73
2021/04/29 06:53:57;;;;;;;65.20;46.17;;;;;;;9.71;73.52;98949.09;5037960;28;20050;-75
2021/04/29 06:56:23;;;;;;;68.65;44.28;;;;;;;9.61;73.33;98943.63;5039307;28;20064;-72
2021/04/29 06:59:07;;;;;;;67.40;45.22;;;;;;;9.43;74.51;98956.50;5039749;28;20053;-72
2021/04/29 07:01:34;;;;;;;74.40;45.53;;;;;;;9.40;74.86;98958.56;5038491;28;20103;-74
2021/04/29 07:04:01;;;;;;;64.07;45.22;;;;;;;9.48;74.68;98956.19;5038115;28;20430;-73
2021/04/29 07:06:29;;;;;;;65.80;47.00;;;;;;;9.50;74.59;98965.72;5037659;28;20065;-74
2021/04/29 07:08:58;;;;;;;58.60;44.75;;;;;;;9.48;74.70;98962.34;5038561;28;20089;-74
2021/04/29 07:11:28;;;;;;;58.60;42.42;;;;;;;9.42;74.59;98961.97;5038676;28;20081;-72
2021/04/29 07:13:54;;;;;;;62.10;44.15;;;;;;;9.34;74.88;98971.41;5036819;28;20439;-73
2021/04/29 07:16:21;;;;;;;62.03;43.58;;;;;;;9.43;74.27;98964.50;5037843;28;20061;-75
2021/04/29 07:18:47;;;;;;;59.22;45.80;;;;;;;9.40;74.64;98959.41;5038475;28;20057;-73
2021/04/29 07:21:14;;;;;;;61.33;44.83;;;;;;;9.44;74.89;98971.56;5037913;28;20049;-76
2021/04/29 07:23:41;;;;;;;64.50;45.13;;;;;;;9.54;74.55;98969.03;5003196;28;20058;-74
2021/04/29 07:26:13;;;;;;;58.92;44.83;;;;;;;9.73;74.30;98971.13;5021421;28;20109;-73
2021/04/29 07:28:41;;;;;;;63.00;43.55;;;;;;;9.82;73.78;98966.06;5036807;28;20477;-75
2021/04/29 07:31:08;;;;;;;61.05;43.55;;;;;;;9.80;73.54;98966.16;5037458;28;20041;-75
2021/04/29 07:33:34;;;;;;;61.47;44.10;;;;;;;9.68;74.09;98956.44;5020108;28;20055;-74
2021/04/29 07:36:01;;;;;;;57.78;42.38;;;;;;;9.76;73.98;98962.06;5001082;28;20054;-75
2021/04/29 07:38:27;;;;;;;59.15;43.20;;;;;;;9.68;74.29;98969.78;5000899;28;20076;-72
2021/04/29 07:40:54;;;;;;;57.22;43.47;;;;;;;9.72;74.19;98957.91;5018197;28;20049;-74
2021/04/29 07:43:20;;;;;;;56.67;42.65;;;;;;;9.93;73.68;98966.09;5017701;28;20137;-73
2021/04/29 07:45:47;;;;;;;58.25;42.65;;;;;;;9.94;73.93;98966.91;5017772;28;20414;-75
2021/04/29 07:48:13;;;;;;;58.67;41.95;;;;;;;10.06;73.43;98965.97;5017734;28;20062;-73
2021/04/29 07:50:47;;;;;;;55.80;42.92;;;;;;;10.24;72.66;98962.84;5018206;28;20061;-73
2021/04/29 07:53:13;;;;;;;57.55;41.53;;;;;;;10.51;71.70;98958.97;5018001;28;20057;-72
2021/04/29 07:55:39;;;;;;;54.20;40.22;;;;;;;10.76;70.94;98965.84;5017923;28;20053;-73
2021/04/29 07:58:09;;;;;;;55.40;40.13;;;;;;;10.88;70.04;98977.34;5002760;28;20097;-74
2021/04/29 08:00:51;;;;;;;52.60;40.17;;;;;;;10.56;70.84;98967.44;5019383;28;20092;-73
2021/04/29 08:03:18;;;;;;;54.95;39.97;;;;;;;10.71;70.71;98982.22;5017398;28;20065;-72
2021/04/29 08:05:45;;;;;;;56.10;41.33;;;;;;;10.46;71.45;98972.66;5017454;28;20049;-72
2021/04/29 08:08:12;;;;;;;61.40;41.22;;;;;;;10.51;71.32;98964.31;5016995;28;20057;-72
2021/04/29 08:10:41;;;;;;;41.65;31.75;;;;;;;10.59;71.19;98973.38;5017175;28;20060;-73
2021/04/29 08:13:10;;;;;;;54.80;40.22;;;;;;;10.53;71.00;98962.34;5019779;28;20046;-75
2021/04/29 08:15:38;;;;;;;58.58;40.25;;;;;;;10.94;69.99;98978.63;5037126;28;20499;-74
2021/04/29 08:18:05;;;;;;;51.70;41.00;;;;;;;10.99;69.20;98979.97;5019438;28;20140;-75
2021/04/29 08:20:31;;;;;;;50.75;36.45;;;;;;;10.69;70.49;98978.81;5036974;28;20057;-73
2021/04/29 08:22:57;;;;;;;57.33;41.67;;;;;;;10.83;70.78;98979.50;5019534;28;20053;-74
2021/04/29 08:25:24;;;;;;;51.97;39.53;;;;;;;10.96;69.95;98990.91;5036452;28;20045;-72
2021/04/29 08:27:50;;;;;;;49.70;38.22;;;;;;;11.07;69.19;98994.53;5036553;28;20464;-73
2021/04/29 08:30:17;;;;;;;53.70;39.47;;;;;;;10.60;69.49;98995.56;5036712;28;20057;-74
2021/04/29 08:32:44;;;;;;;50.95;37.88;;;;;;;10.50;69.63;98989.28;5003252;28;20053;-73
2021/04/29 08:35:10;;;;;;;50.95;37.92;;;;;;;10.35;70.11;99002.00;5005936;28;20363;-72
2021/04/29 08:37:37;;;;;;;47.17;37.33;;;;;;;10.25;70.80;98994.69;4999295;28;20085;-74
2021/04/29 08:40:04;;;;;;;51.00;37.33;;;;;;;10.31;70.70;98998.72;4999478;28;20057;-73
2021/04/29 08:42:30;;;;;;;46.53;34.75;;;;;;;10.30;70.56;99002.34;5016841;28;20093;-73
2021/04/29 08:44:56;;;;;;;51.38;36.83;;;;;;;10.49;70.22;99004.44;5000287;28;20056;-73
2021/04/29 08:47:24;;;;;;;48.17;36.22;;;;;;;10.38;69.75;99013.25;5016452;28;20058;-73
2021/04/29 08:50:10;;;;;;;42.70;32.83;;;;;;;10.68;69.37;99019.81;5016301;28;20336;-73
2021/04/29 08:52:38;;;;;;;42.75;32.25;;;;;;;10.70;68.21;99017.91;5016796;28;20050;-73
2021/04/29 08:55:06;;;;;;;40.17;31.90;;;;;;;10.65;68.63;99014.75;5016511;28;20049;-75
2021/04/29 08:57:32;;;;;;;37.78;30.83;;;;;;;10.57;68.86;99017.19;5016396;28;20054;-74
2021/04/29 09:00:03;;;;;;;39.60;31.52;;;;;;;10.49;68.69;99017.78;5016424;28;20173;-75
2021/04/29 09:02:35;;;;;;;36.88;28.80;;;;;;;10.33;68.99;99018.97;5016103;28;20112;-75
2021/04/29 09:05:09;;;;;;;40.03;29.73;;;;;;;10.46;68.64;99013.53;4999111;28;20073;-73
2021/04/29 09:07:37;;;;;;;36.63;28.10;;;;;;;10.68;66.67;99019.00;5016197;28;20062;-74
2021/04/29 09:10:07;;;;;;;34.78;27.75;;;;;;;10.65;66.32;99009.41;4998564;28;20054;-72
2021/04/29 09:12:44;;;;;;;37.40;28.80;;;;;;;10.62;66.02;99030.97;5016289;28;20053;-71
2021/04/29 09:15:26;;;;;;;35.50;27.85;;;;;;;10.94;65.59;99029.38;5018873;28;20061;-73
2021/04/29 09:18:29;;;;;;;37.00;28.05;;;;;;;11.38;64.92;99032.03;5036024;28;20103;-75
2021/04/29 09:21:06;;;;;;;32.67;27.05;;;;;;;11.48;64.50;99035.66;5029634;28;20049;-72
2021/04/29 09:23:36;;;;;;;33.08;26.67;;;;;;;11.50;63.16;99033.69;5035941;28;20050;-72
2021/04/29 09:26:10;;;;;;;36.10;25.70;;;;;;;11.44;62.89;99036.03;5036456;28;20140;-75
2021/04/29 09:28:39;;;;;;;44.03;26.63;;;;;;;11.24;62.87;99039.38;5036368;28;20060;-72
2021/04/29 09:31:09;;;;;;;32.75;26.38;;;;;;;11.11;62.85;99038.69;5035860;28;20053;-73
2021/04/29 09:33:37;;;;;;;33.88;27.05;;;;;;;11.03;63.28;99027.78;5035728;28;20061;-74
2021/04/29 09:36:04;;;;;;;37.05;26.42;;;;;;;11.10;63.91;99029.84;4998578;28;20050;-73
2021/04/29 09:38:39;;;;;;;37.00;28.00;;;;;;;11.20;63.06;99026.41;5016040;28;20053;-74
2021/04/29 09:41:08;;;;;;;34.00;26.90;;;;;;;11.25;62.92;99033.09;4998496;28;20046;-73
2021/04/29 09:43:35;;;;;;;39.17;27.48;;;;;;;11.21;62.67;99031.63;4982826;28;20061;-74
2021/04/29 09:46:03;;;;;;;35.65;28.17;;;;;;;11.02;63.51;99042.97;4998549;28;20045;-73
2021/04/29 09:48:34;;;;;;;36.90;30.00;;;;;;;10.65;65.78;99048.56;4998039;28;20057;-75
2021/04/29 09:51:01;;;;;;;44.85;31.58;;;;;;;10.48;67.35;99056.09;4998352;28;20061;-74
2021/04/29 09:53:38;;;;;;;40.40;30.58;;;;;;;10.27;68.39;99071.91;4998459;28;20061;-74
2021/04/29 09:56:12;;;;;;;45.00;33.08;;;;;;;10.13;72.63;99087.16;5015637;28;20050;-74
2021/04/29 09:58:44;;;;;;;26.75;21.00;;;;;;;9.60;72.69;99093.75;4998341;28;20061;-74
2021/04/29 10:01:11;;;;;;;28.60;23.60;;;;;;;9.04;75.81;99110.28;5015323;28;20060;-74
2021/04/29 10:03:39;;;;;;;34.90;24.50;;;;;;;8.53;76.60;99110.22;4998265;28;20050;-74
2021/04/29 10:06:05;;;;;;;34.72;27.65;;;;;;;8.38;79.19;99122.72;4998462;28;20204;-74
2021/04/29 10:08:34;;;;;;;34.40;28.33;;;;;;;8.35;79.69;99122.09;4998081;28;20058;-73
2021/04/29 10:11:03;;;;;;;34.30;27.70;;;;;;;8.31;80.20;99105.50;5015379;28;20082;-72
2021/04/29 10:13:32;;;;;;;32.78;25.73;;;;;;;8.61;79.22;99138.09;5003070;28;20050;-72
2021/04/29 10:15:59;;;;;;;33.58;26.80;;;;;;;8.79;78.30;99131.50;5034946;28;20149;-74
2021/04/29 10:18:27;;;;;;;31.23;24.23;;;;;;;9.13;78.47;99127.38;5035011;28;20536;-74
2021/04/29 10:20:56;;;;;;;23.52;18.02;;;;;;;9.38;75.21;99135.28;5034996;28;20050;-72
2021/04/29 10:23:23;;;;;;;19.80;17.38;;;;;;;9.61;75.33;99127.44;5034997;28;20055;-73
2021/04/29 10:25:54;;;;;;;16.63;14.82;;;;;;;9.63;73.88;99119.31;5034951;28;20060;-74
2021/04/29 10:28:43;;;;;;;17.85;13.40;;;;;;;9.43;75.71;99142.94;5034808;28;20056;-75
2021/04/29 10:31:27;;;;;;;17.88;13.32;;;;;;;9.28;75.19;99138.72;5035034;28;20071;-74
2021/04/29 10:33:54;;;;;;;21.85;16.95;;;;;;;9.24;76.23;99130.13;5034812;28;20049;-73
2021/04/29 10:36:22;;;;;;;23.30;17.80;;;;;;;9.40;76.41;99134.31;5017642;28;20057;-75
2021/04/29 10:38:49;;;;;;;18.83;15.98;;;;;;;9.72;75.42;99133.78;5017280;28;20335;-74
2021/04/29 10:41:17;;;;;;;18.55;16.05;;;;;;;10.27;76.33;99136.78;5034614;28;20103;-72
2021/04/29 10:43:44;;;;;;;20.55;16.10;;;;;;;10.32;75.85;99131.09;5035169;28;20049;-74
2021/04/29 10:46:10;;;;;;;15.27;13.35;;;;;;;9.99;73.54;99148.69;5000909;28;20442;-75
2021/04/29 10:48:50;;;;;;;11.52;8.88;;;;;;;9.57;71.58;99152.59;5034727;28;20049;-74
2021/04/29 10:51:20;;;;;;;12.07;9.37;;;;;;;9.31;74.06;99155.34;5034631;28;20316;-73
2021/04/29 10:53:47;;;;;;;11.53;9.53;;;;;;;9.17;72.97;99163.47;5033839;28;20053;-74
2021/04/29 10:56:17;;;;;;;14.40;10.93;;;;;;;9.08;74.29;99160.50;5034886;28;20282;-73
2021/04/29 10:58:44;;;;;;;;;;;;;;;8.92;73.21;99173.19;5037105;28;20060;-75
2021/04/29 11:01:17;;;;;;;16.02;10.63;;;;;;;8.96;73.78;99177.34;5038396;28;19929;-74
2021/04/29 11:03:49;;;;;;;13.65;9.57;;;;;;;8.86;73.78;99168.28;5038273;28;20049;-74
2021/04/29 11:06:19;;;;;;;12.38;9.40;;;;;;;8.81;73.00;99182.78;5038256;28;20053;-75
2021/04/29 11:08:48;;;;;;;14.50;10.20;;;;;;;8.91;72.94;99196.28;5037840;28;20065;-74
2021/04/29 11:11:38;;;;;;;15.05;10.80;;;;;;;9.07;74.32;99185.44;5036800;28;20423;-73
2021/04/29 11:14:09;;;;;;;19.58;12.15;;;;;;;9.45;73.55;99188.13;5007887;28;20050;-74
2021/04/29 11:16:53;;;;;;;17.27;11.20;;;;;;;9.53;71.10;99191.06;5018270;28;20062;-75
2021/04/29 11:19:34;;;;;;;12.38;9.32;;;;;;;9.80;69.38;99192.69;5018456;28;20054;-74
2021/04/29 11:22:03;;;;;;;15.32;9.30;;;;;;;9.89;66.86;99191.16;5001110;28;20054;-74
2021/04/29 11:24:35;;;;;;;11.68;8.20;;;;;;;10.00;66.76;99201.03;5017890;28;20064;-71
2021/04/29 11:27:02;;;;;;;13.18;8.65;;;;;;;10.03;67.82;99203.47;5018224;28;20057;-73
2021/04/29 11:29:39;;;;;;;11.63;8.23;;;;;;;9.85;65.93;99209.19;5000850;28;20439;-72
2021/04/29 11:32:05;;;;;;;10.27;6.22;;;;;;;9.53;67.18;99225.69;5018240;28;20042;-72